Time;durP1;ratioP1;P1;durP2;ratioP2;P2;SDS_P1;SDS_P2;PMS_P1;PMS_P2;Temp;Humidity;BMP_temperature;BMP_pressure;BME280_temperature;BME280_humidity;BME280_pressure;Samples;Min_cycle;Max_cycle;Signal;HPM_P1;HPM_P2
2022/08/26 00:00:55;;;;;;;22.23;14.15;;;;;;;;;;4954076;29;19950;-62
2022/08/26 00:03:22;;;;;;;21.00;13.68;;;;;;;;;;4954339;28;20393;-62
2022/08/26 00:05:49;;;;;;;18.98;14.23;;;;;;;;;;4954742;28;20500;-63
2022/08/26 00:08:16;;;;;;;17.67;14.20;;;;;;;;;;4954422;28;20040;-63
2022/08/26 00:10:43;;;;;;;19.75;14.35;;;;;;;;;;4953954;29;20480;-62
2022/08/26 00:13:09;;;;;;;19.17;14.38;;;;;;;;;;4954007;28;20050;-62
2022/08/26 00:15:36;;;;;;;24.65;14.43;;;;;;;;;;4954399;28;20393;-63
2022/08/26 00:18:02;;;;;;;16.38;13.75;;;;;;;;;;4954537;28;20443;-63
2022/08/26 00:20:30;;;;;;;18.83;13.85;;;;;;;;;;4954355;28;20023;-62
2022/08/26 00:22:56;;;;;;;15.27;13.40;;;;;;;;;;4954283;28;20039;-62
2022/08/26 00:25:23;;;;;;;19.55;13.48;;;;;;;;;;4953721;28;20035;-63
2022/08/26 00:27:50;;;;;;;24.80;14.95;;;;;;;;;;4953992;28;20508;-62
2022/08/26 00:30:18;;;;;;;23.95;14.98;;;;;;;;;;4954117;28;20027;-62
2022/08/26 00:32:44;;;;;;;27.42;14.32;;;;;;;;;;4953916;28;20030;-63
2022/08/26 00:35:11;;;;;;;20.60;15.52;;;;;;;;;;4953812;28;20024;-63
2022/08/26 00:37:38;;;;;;;18.27;14.00;;;25.70;64.20;;;;;;4954142;28;20527;-63
2022/08/26 00:40:13;;;;;;;19.42;14.65;;;26.40;61.90;;;;;;4952342;28;20055;-62
2022/08/26 00:42:38;;;;;;;28.58;15.15;;;26.30;62.70;;;;;;4953455;28;20063;-62
2022/08/26 00:45:05;;;;;;;19.80;14.43;;;26.30;62.60;;;;;;4953615;28;20578;-62
2022/08/26 00:47:43;;;;;;;23.77;13.73;;;26.30;62.70;;;;;;4954045;28;20192;-62
2022/08/26 00:50:13;;;;;;;19.75;13.50;;;26.20;62.80;;;;;;4953745;28;20055;-62
2022/08/26 00:52:39;;;;;;;18.27;13.93;;;26.20;62.60;;;;;;4953867;28;20110;-62
2022/08/26 00:55:10;;;;;;;21.67;13.23;;;26.20;62.80;;;;;;4953649;28;20062;-62
2022/08/26 00:57:37;;;;;;;16.70;13.38;;;26.20;62.60;;;;;;4952372;28;20061;-62
2022/08/26 01:00:08;;;;;;;16.63;13.60;;;26.30;62.50;;;;;;4953202;28;20111;-62
2022/08/26 01:02:34;;;;;;;19.40;13.95;;;26.30;62.40;;;;;;4934315;29;20038;-63
2022/08/26 01:05:03;;;;;;;22.27;14.02;;;26.30;62.20;;;;;;4949524;28;20034;-63
2022/08/26 01:07:30;;;;;;;17.13;13.60;;;26.40;62.50;;;;;;4953591;28;20023;-63
2022/08/26 01:09:58;;;;;;;22.55;14.25;;;26.40;62.50;;;;;;4953172;28;20039;-63
2022/08/26 01:12:26;;;;;;;21.02;13.40;;;26.40;62.70;;;;;;4953745;28;20039;-63
2022/08/26 01:14:54;;;;;;;22.42;13.57;;;26.40;63.00;;;;;;4952871;29;20042;-63
2022/08/26 01:17:20;;;;;;;18.42;13.45;;;26.40;62.80;;;;;;4953552;28;20038;-63
2022/08/26 01:19:57;;;;;;;14.60;13.10;;;26.40;62.60;;;;;;4953021;28;20031;-63
2022/08/26 01:22:31;;;;;;;14.43;12.90;;;26.30;62.60;;;;;;4953658;28;20110;-63
2022/08/26 01:25:01;;;;;;;16.67;12.95;;;26.40;62.70;;;;;;4953840;28;20401;-62
2022/08/26 01:27:30;;;;;;;19.00;14.00;;;26.30;62.70;;;;;;4952307;28;20031;-62
2022/08/26 01:29:57;;;;;;;17.10;13.23;;;26.30;62.90;;;;;;4952883;28;20039;-63
2022/08/26 01:32:24;;;;;;;14.55;12.80;;;26.20;63.10;;;;;;4953475;28;20042;-61
2022/08/26 01:34:51;;;;;;;12.65;11.45;;;26.20;63.30;;;;;;4953156;28;20034;-63
2022/08/26 01:37:24;;;;;;;16.98;12.02;;;26.20;63.60;;;;;;4953648;28;20074;-63
2022/08/26 01:39:53;;;;;;;19.98;11.98;;;26.20;63.60;;;;;;4953222;28;20031;-63
2022/08/26 01:42:21;;;;;;;14.05;12.13;;;26.10;63.90;;;;;;4953268;28;20499;-63
2022/08/26 01:45:11;;;;;;;17.65;12.43;;;26.20;64.00;;;;;;4952943;28;20042;-62
2022/08/26 01:47:37;;;;;;;15.68;11.68;;;26.10;64.70;;;;;;4953264;28;20094;-63
2022/08/26 01:50:09;;;;;;;14.18;11.50;;;26.00;64.20;;;;;;4951778;28;20175;-62
2022/08/26 01:52:39;;;;;;;13.50;12.00;;;26.00;64.70;;;;;;4953370;28;20031;-62
2022/08/26 01:55:05;;;;;;;15.80;11.80;;;25.80;64.80;;;;;;4952269;28;20024;-62
2022/08/26 01:57:32;;;;;;;17.80;12.18;;;25.90;65.00;;;;;;4953158;28;20221;-62
2022/08/26 02:00:01;;;;;;;15.05;11.75;;;25.90;65.00;;;;;;4952935;28;20384;-62
2022/08/26 02:02:27;;;;;;;12.40;11.10;;;25.90;64.90;;;;;;4952136;28;20089;-62
2022/08/26 02:04:58;;;;;;;15.07;12.60;;;25.90;65.30;;;;;;4951929;28;20023;-62
2022/08/26 02:07:25;;;;;;;13.15;11.63;;;25.80;65.60;;;;;;4953088;28;20050;-62
2022/08/26 02:09:50;;;;;;;;;;;25.80;65.30;;;;;;4953317;28;20373;-62
2022/08/26 02:12:18;;;;;;;13.98;11.05;;;25.80;65.30;;;;;;4952890;28;19917;-62
2022/08/26 02:14:49;;;;;;;13.70;11.73;;;25.70;65.90;;;;;;4953146;28;20518;-62
2022/08/26 02:17:16;;;;;;;14.77;13.32;;;25.60;66.20;;;;;;4956855;28;20389;-62
2022/08/26 02:19:46;;;;;;;18.05;13.20;;;25.60;66.40;;;;;;4956212;28;20042;-61
2022/08/26 02:22:15;;;;;;;14.90;13.35;;;;;;;;;;4956631;28;20082;-62
2022/08/26 02:24:52;;;;;;;15.13;13.40;;;;;;;;;;4956009;28;20039;-61
2022/08/26 02:27:20;;;;;;;15.63;12.93;;;;;;;;;;4956580;28;20034;-62
2022/08/26 02:29:48;;;;;;;15.15;13.20;;;;;;;;;;4956026;28;20031;-62
2022/08/26 02:32:14;;;;;;;19.45;13.48;;;;;;;;;;4955958;28;20042;-63
2022/08/26 02:34:41;;;;;;;17.10;14.63;;;;;;;;;;4955873;28;20027;-62
2022/08/26 02:37:08;;;;;;;16.83;13.63;;;;;;;;;;4955859;28;20750;-62
2022/08/26 02:39:35;;;;;;;16.27;13.93;;;;;;;;;;4955791;28;20267;-62
2022/08/26 02:42:02;;;;;;;17.08;15.32;;;;;;;;;;4956206;28;20035;-62
2022/08/26 02:44:28;;;;;;;21.50;16.17;;;;;;;;;;4987121;28;20032;-62
2022/08/26 02:46:54;;;;;;;21.63;15.50;;;;;;;;;;4955642;28;20122;-63
2022/08/26 02:49:21;;;;;;;17.35;15.38;;;;;;;;;;4955704;28;20031;-62
2022/08/26 02:51:48;;;;;;;17.25;14.95;;;;;;;;;;4955338;28;20082;-61
2022/08/26 02:54:15;;;;;;;16.77;14.98;;;;;;;;;;4955728;28;20031;-62
2022/08/26 02:56:41;;;;;;;17.23;15.30;;;;;;;;;;4955946;28;20026;-62
2022/08/26 02:59:07;;;;;;;19.02;14.68;;;;;;;;;;4955809;28;20027;-61
2022/08/26 03:01:34;;;;;;;20.73;15.52;;;;;;;;;;4955080;28;20031;-62
2022/08/26 03:04:02;;;;;;;23.17;15.85;;;;;;;;;;4954629;28;20366;-62
2022/08/26 03:06:28;;;;;;;17.30;15.45;;;;;;;;;;4955339;28;20023;-62
2022/08/26 03:08:54;;;;;;;19.90;15.95;;;;;;;;;;4955709;28;20560;-62
2022/08/26 03:11:21;;;;;;;22.08;16.42;;;;;;;;;;4955183;28;20035;-62
2022/08/26 03:13:47;;;;;;;16.30;14.65;;;;;;;;;;4955360;28;20094;-62
2022/08/26 03:16:13;;;;;;;24.80;15.57;;;;;;;;;;4955657;28;20034;-62
2022/08/26 03:18:40;;;;;;;17.08;14.60;;;;;;;;;;4955586;28;20294;-62
2022/08/26 03:21:06;;;;;;;17.48;14.77;;;;;;;;;;4955521;28;20023;-62
2022/08/26 03:23:33;;;;;;;18.63;15.20;;;;;;;;;;4954717;28;20039;-62
2022/08/26 03:26:00;;;;;;;;;;;;;;;;;;4955768;28;20501;-63
2022/08/26 03:28:26;;;;;;;18.48;15.38;;;;;;;;;;4953413;28;19913;-61
2022/08/26 03:30:52;;;;;;;16.17;14.43;;;;;;;;;;4955204;28;20074;-62
2022/08/26 03:33:18;;;;;;;23.38;15.38;;;;;;;;;;4954979;28;20066;-60
2022/08/26 03:35:48;;;;;;;16.40;14.45;;;;;;;;;;4986361;28;20181;-62
2022/08/26 03:38:14;;;;;;;18.48;14.27;;;;;;;;;;4954125;28;20029;-62
2022/08/26 03:40:41;;;;;;;15.00;13.50;;;;;;;;;;4954485;28;20090;-60
2022/08/26 03:43:07;;;;;;;;;;;;;;;;;;4955165;28;20301;-62
2022/08/26 03:45:33;;;;;;;18.92;12.90;;;;;;;;;;4954920;28;20336;-62
2022/08/26 03:47:59;;;;;;;15.93;13.50;;;;;;;;;;4954955;28;20027;-62
2022/08/26 03:50:26;;;;;;;16.77;14.02;;;;;;;;;;4954136;28;20399;-62
2022/08/26 03:52:53;;;;;;;18.02;14.52;;;25.60;67.20;;;;;;4954973;28;20090;-62
2022/08/26 03:55:22;;;;;;;17.95;14.38;;;25.00;70.00;;;;;;4954892;28;20026;-62
2022/08/26 03:57:48;;;;;;;23.45;13.82;;;;;;;;;;4953764;28;20496;-61
2022/08/26 04:00:15;;;;;;;16.27;14.57;;;;;;;;;;4954464;28;20028;-62
2022/08/26 04:02:44;;;;;;;17.38;14.65;;;;;;;;;;4954726;28;20481;-62
2022/08/26 04:05:11;;;;;;;20.38;13.50;;;;;;;;;;4953453;28;20041;-62
2022/08/26 04:07:37;;;;;;;15.93;14.32;;;;;;;;;;4954822;28;20027;-62
2022/08/26 04:10:03;;;;;;;18.53;14.27;;;;;;;;;;4954669;28;20042;-62
2022/08/26 04:12:29;;;;;;;16.38;14.18;;;;;;;;;;4954523;28;20278;-62
2022/08/26 04:14:55;;;;;;;18.43;14.90;;;;;;;;;;4954354;28;20043;-60
2022/08/26 04:17:24;;;;;;;17.93;14.07;;;;;;;;;;4953429;28;20042;-62
2022/08/26 04:19:50;;;;;;;16.25;14.52;;;;;;;;;;4954552;28;20023;-61
2022/08/26 04:22:17;;;;;;;16.33;14.73;;;;;;;;;;4954594;28;20110;-61
2022/08/26 04:24:44;;;;;;;19.25;16.85;;;;;;;;;;4954370;28;20031;-62
2022/08/26 04:27:10;;;;;;;17.42;15.07;;;;;;;;;;4954421;28;20031;-61
2022/08/26 04:29:37;;;;;;;18.88;16.10;;;;;;;;;;4952943;28;20027;-60
2022/08/26 04:32:04;;;;;;;19.05;16.52;;;;;;;;;;4954227;28;20035;-61
2022/08/26 04:34:31;;;;;;;19.15;17.17;;;;;;;;;;4954457;28;20492;-62
2022/08/26 04:36:57;;;;;;;18.25;16.52;;;;;;;;;;4954021;28;20106;-62
2022/08/26 04:39:23;;;;;;;26.65;16.75;;;;;;;;;;4952676;28;20023;-63
2022/08/26 04:41:50;;;;;;;22.35;17.50;;;;;;;;;;4954040;28;20031;-62
2022/08/26 04:44:16;;;;;;;20.55;16.75;;;;;;;;;;4954024;28;20035;-63
2022/08/26 04:46:42;;;;;;;24.40;17.23;;;;;;;;;;4954151;28;20031;-62
2022/08/26 04:49:08;;;;;;;22.23;17.92;;;;;;;;;;4952933;28;20035;-62
2022/08/26 04:51:35;;;;;;;19.93;16.67;;;;;;;;;;4953820;28;20496;-61
2022/08/26 04:54:01;;;;;;;;;;;;;;;;;;4953144;28;20038;-61
2022/08/26 04:56:29;;;;;;;19.50;16.48;;;;;;;;;;4953842;28;19907;-62
2022/08/26 04:58:55;;;;;;;21.75;17.33;;;;;;;;;;4953888;28;20023;-61
2022/08/26 05:01:22;;;;;;;19.80;16.35;;;;;;;;;;4953776;28;20400;-62
2022/08/26 05:03:48;;;;;;;19.08;17.08;;;;;;;;;;4952795;28;20500;-62
2022/08/26 05:06:15;;;;;;;18.75;16.35;;;;;;;;;;4952589;28;20031;-63
2022/08/26 05:08:41;;;;;;;21.27;17.13;;;;;;;;;;4953895;28;20031;-62
2022/08/26 05:11:07;;;;;;;24.13;18.27;;;;;;;;;;4953510;28;20035;-61
2022/08/26 05:13:34;;;;;;;18.10;16.30;;;;;;;;;;4953647;28;20133;-62
2022/08/26 05:16:04;;;;;;;23.13;17.35;;;;;;;;;;4953774;28;20402;-59
2022/08/26 05:18:30;;;;;;;23.17;18.08;;;;;;;;;;4953768;28;20050;-61
2022/08/26 05:20:56;;;;;;;23.90;18.00;;;24.70;71.00;;;;;;4953596;28;20028;-62
2022/08/26 05:23:23;;;;;;;22.33;18.33;;;24.40;72.70;;;;;;4953428;28;20272;-61
2022/08/26 05:25:50;;;;;;;24.80;17.63;;;;;;;;;;4952542;28;20035;-61
2022/08/26 05:28:17;;;;;;;31.75;19.63;;;;;;;;;;4953526;28;20031;-61
2022/08/26 05:30:43;;;;;;;27.45;19.42;;;;;;;;;;4953662;28;20035;-62
2022/08/26 05:33:09;;;;;;;23.70;18.67;;;;;;;;;;4953563;28;20031;-61
2022/08/26 05:35:37;;;;;;;28.50;19.20;;;;;;;;;;4953470;28;20023;-61
2022/08/26 05:38:06;;;;;;;22.23;18.75;;;24.50;72.00;;;;;;4953480;28;20377;-61
2022/08/26 05:40:50;;;;;;;24.60;19.58;;;24.00;74.70;;;;;;4953488;28;20023;-61
2022/08/26 05:43:17;;;;;;;21.00;18.63;;;24.10;73.90;;;;;;4953457;28;20452;-62
2022/08/26 05:45:47;;;;;;;22.55;18.88;;;24.30;73.60;;;;;;4953554;28;20112;-63
2022/08/26 05:48:18;;;;;;;24.30;18.75;;;;;;;;;;4953580;28;20031;-62
2022/08/26 05:50:47;;;;;;;22.23;18.05;;;24.20;73.90;;;;;;4956979;28;20062;-62
2022/08/26 05:53:15;;;;;;;22.30;20.10;;;24.30;74.40;;;;;;4957043;28;20118;-63
2022/08/26 05:55:42;;;;;;;23.48;19.27;;;24.30;73.50;;;;;;4957117;28;20070;-63
2022/08/26 05:58:09;;;;;;;21.90;19.63;;;;;;;;;;4957154;28;20075;-63
2022/08/26 06:00:35;;;;;;;22.20;19.23;;;;;;;;;;4956947;28;20038;-63
2022/08/26 06:03:01;;;;;;;27.30;19.73;;;;;;;;;;4956915;28;20031;-62
2022/08/26 06:05:27;;;;;;;25.60;19.37;;;;;;;;;;4956832;28;20032;-63
2022/08/26 06:08:13;;;;;;;26.33;19.50;;;;;;;;;;4957031;28;20436;-62
2022/08/26 06:10:45;;;;;;;20.85;18.67;;;;;;;;;;4956827;28;20030;-62
2022/08/26 06:13:11;;;;;;;20.23;17.67;;;24.40;73.20;;;;;;4956923;28;20559;-62
2022/08/26 06:15:45;;;;;;;20.83;16.80;;;25.10;71.20;;;;;;4956567;28;20388;-62
2022/08/26 06:18:16;;;;;;;19.48;16.48;;;25.30;71.10;;;;;;4956830;28;20444;-62
2022/08/26 06:20:44;;;;;;;18.92;15.85;;;25.30;70.90;;;;;;4956696;28;20055;-63
2022/08/26 06:25:57;;;;;;;18.48;16.45;;;;;;;;;;4956731;29;20054;-63
2022/08/26 06:28:23;;;;;;;19.95;17.38;;;;;;;;;;4956600;28;20031;-62
2022/08/26 06:30:50;;;;;;;19.73;15.57;;;;;;;;;;4956422;28;20024;-62
2022/08/26 06:33:16;;;;;;;;;;;;;;;;;;4956845;28;20042;-63
2022/08/26 06:35:44;;;;;;;19.08;15.15;;;;;;;;;;4956494;28;20000;-63
2022/08/26 06:38:10;;;;;;;21.95;17.58;;;;;;;;;;4956486;28;20027;-63
2022/08/26 06:40:48;;;;;;;29.83;19.20;;;;;;;;;;4956090;28;20480;-62
2022/08/26 06:43:20;;;;;;;23.65;17.90;;;25.40;71.80;;;;;;4954965;28;20480;-63
2022/08/26 06:45:46;;;;;;;24.88;18.42;;;25.40;73.00;;;;;;4956585;28;20023;-62
2022/08/26 06:48:14;;;;;;;20.05;17.80;;;25.40;72.50;;;;;;4956362;28;20054;-62
2022/08/26 06:50:41;;;;;;;19.70;16.83;;;25.40;73.00;;;;;;4954877;28;20031;-61
2022/08/26 06:53:08;;;;;;;18.70;14.73;;;25.40;72.50;;;;;;4955938;28;20027;-62
2022/08/26 06:55:42;;;;;;;17.90;14.55;;;25.40;72.10;;;;;;4955923;28;20473;-62
2022/08/26 06:58:08;;;;;;;16.27;14.32;;;;;;;;;;4956075;28;20023;-62
2022/08/26 07:00:35;;;;;;;15.95;13.27;;;;;;;;;;4955286;28;20039;-61
2022/08/26 07:03:01;;;;;;;16.75;14.00;;;;;;;;;;4955960;28;20023;-63
2022/08/26 07:05:27;;;;;;;15.93;13.43;;;;;;;;;;4955786;28;20382;-62
2022/08/26 07:07:54;;;;;;;16.40;13.60;;;;;;;;;;4955872;28;20023;-62
2022/08/26 07:10:20;;;;;;;15.00;12.98;;;;;;;;;;4955738;28;20265;-62
2022/08/26 07:12:47;;;;;;;13.88;11.80;;;;;;;;;;4954526;28;20078;-62
2022/08/26 07:15:14;;;;;;;13.98;11.80;;;;;;;;;;4955698;28;20020;-62
2022/08/26 07:17:40;;;;;;;14.15;12.23;;;;;;;;;;4955788;28;20104;-62
2022/08/26 07:20:07;;;;;;;15.13;11.95;;;25.50;71.10;;;;;;4955597;28;20019;-63
2022/08/26 07:22:35;;;;;;;15.32;11.63;;;26.00;68.80;;;;;;4955617;28;20107;-61
2022/08/26 07:25:01;;;;;;;13.43;12.15;;;;;;;;;;4994898;23;20055;-57
2022/08/26 07:27:27;;;;;;;20.67;12.05;;;26.10;68.90;;;;;;4955562;28;20491;-56
2022/08/26 07:29:55;;;;;;;13.97;12.07;;;26.30;68.30;;;;;;4955447;28;20026;-57
2022/08/26 07:32:22;;;;;;;12.70;11.07;;;26.30;68.00;;;;;;4954171;28;20491;-57
2022/08/26 07:34:47;;;;;;;20.83;11.90;;;26.40;68.30;;;;;;4955221;28;20464;-57
2022/08/26 07:37:13;;;;;;;15.17;12.37;;;26.60;68.30;;;;;;4955614;28;20050;-57
2022/08/26 07:39:40;;;;;;;13.70;11.48;;;26.70;68.10;;;;;;4955404;28;20054;-56
2022/08/26 07:42:07;;;;;;;20.88;11.38;;;26.70;67.70;;;;;;4955441;28;20039;-58
2022/08/26 07:44:34;;;;;;;14.25;11.23;;;26.80;67.50;;;;;;4955710;28;20073;-58
2022/08/26 07:47:00;;;;;;;14.52;10.82;;;26.80;67.00;;;;;;4955266;28;20098;-57
2022/08/26 07:49:26;;;;;;;27.80;18.23;;;27.30;86.40;;;;;;4954991;28;20130;-52
2022/08/26 07:51:53;;;;;;;13.73;10.05;;;26.90;66.30;;;;;;4954918;29;20031;-55
2022/08/26 07:54:19;;;;;;;11.38;9.80;;;26.90;65.80;;;;;;4954950;28;20082;-57
2022/08/26 07:56:47;;;;;;;15.27;10.10;;;27.00;66.30;;;;;;4954972;28;20484;-56
2022/08/26 07:59:13;;;;;;;9.85;8.35;;;27.00;66.00;;;;;;4954925;28;20399;-56
2022/08/26 08:01:39;;;;;;;12.90;9.30;;;27.10;64.90;;;;;;4954637;28;20016;-58
2022/08/26 08:04:06;;;;;;;14.68;9.38;;;27.10;64.60;;;;;;4953444;28;20538;-56
2022/08/26 08:06:32;;;;;;;11.30;10.02;;;27.20;64.70;;;;;;4955058;28;20025;-59
2022/08/26 08:08:59;;;;;;;;;;;27.20;64.10;;;;;;4955162;28;20042;-57
2022/08/26 08:11:28;;;;;;;13.50;9.80;;;27.30;64.20;;;;;;4954652;28;19913;-59
2022/08/26 08:13:54;;;;;;;11.75;9.30;;;27.20;63.10;;;;;;4953743;28;20493;-57
2022/08/26 08:16:20;;;;;;;16.08;9.90;;;27.30;63.70;;;;;;4954542;28;20050;-57
2022/08/26 08:18:46;;;;;;;11.83;8.00;;;27.40;64.20;;;;;;4954786;28;20484;-57
2022/08/26 08:21:12;;;;;;;13.30;8.73;;;27.50;63.90;;;;;;4954522;28;20027;-57
2022/08/26 08:23:38;;;;;;;10.77;9.63;;;27.70;73.50;;;;;;4953129;28;20035;-56
2022/08/26 08:26:06;;;;;;;15.38;9.25;;;27.60;63.70;;;;;;4954472;28;20034;-55
2022/08/26 08:28:33;;;;;;;12.77;9.13;;;27.70;62.80;;;;;;4954444;28;20035;-58
2022/08/26 08:30:59;;;;;;;12.10;9.68;;;27.80;61.50;;;;;;4954120;28;20499;-57
2022/08/26 08:33:25;;;;;;;14.00;10.63;;;27.70;61.90;;;;;;4954309;28;20050;-57
2022/08/26 08:35:51;;;;;;;12.20;9.95;;;27.70;62.20;;;;;;4954229;28;20511;-55
2022/08/26 08:38:17;;;;;;;10.70;8.35;;;27.80;61.90;;;;;;4954269;28;20476;-57
2022/08/26 08:40:44;;;;;;;11.45;8.57;;;27.80;62.00;;;;;;4954122;28;20023;-56
2022/08/26 08:43:29;;;;;;;11.68;8.73;;;27.90;62.30;;;;;;4954235;28;20039;-56
2022/08/26 08:46:04;;;;;;;19.38;10.50;;;28.00;61.90;;;;;;4954244;28;20389;-58
2022/08/26 08:48:34;;;;;;;13.43;8.60;;;28.20;61.80;;;;;;4954447;28;20027;-58
2022/08/26 08:51:25;;;;;;;13.82;9.85;;;28.20;61.40;;;;;;4953903;28;20023;-55
2022/08/26 08:53:53;;;;;;;11.50;10.27;;;27.90;69.10;;;;;;4953694;28;20122;-56
2022/08/26 08:56:27;;;;;;;12.23;10.13;;;28.20;60.50;;;;;;4953923;28;20027;-57
2022/08/26 08:59:16;;;;;;;13.38;10.25;;;28.20;61.30;;;;;;4953949;28;20034;-57
2022/08/26 09:02:04;;;;;;;12.48;10.40;;;28.30;61.30;;;;;;4953829;28;20098;-58
2022/08/26 09:04:45;;;;;;;16.15;10.50;;;28.40;62.20;;;;;;4953789;28;20027;-57
2022/08/26 09:07:25;;;;;;;13.75;11.05;;;28.50;61.40;;;;;;4953834;28;20034;-57
2022/08/26 09:10:15;;;;;;;17.60;12.65;;;28.60;61.30;;;;;;4953745;28;20074;-56
2022/08/26 09:12:42;;;;;;;14.85;10.63;;;28.60;59.40;;;;;;4953618;28;20089;-58
2022/08/26 09:15:16;;;;;;;;;;;28.60;60.10;;;;;;4954047;28;20028;-56
2022/08/26 09:17:58;;;;;;;14.30;10.55;;;28.60;59.10;;;;;;4953729;28;20186;-55
2022/08/26 09:20:57;;;;;;;11.40;9.85;;;28.50;59.40;;;;;;4953686;28;20102;-56
2022/08/26 09:23:24;;;;;;;14.55;10.95;;;28.60;59.40;;;;;;4953869;28;20031;-55
2022/08/26 09:25:53;;;;;;;19.08;10.93;;;28.70;59.50;;;;;;4953494;28;20499;-56
2022/08/26 09:28:22;;;;;;;11.73;9.18;;;28.70;59.10;;;;;;4953670;28;20031;-56
2022/08/26 09:31:20;;;;;;;12.18;9.00;;;28.80;58.50;;;;;;4953499;28;20031;-56
2022/08/26 09:33:47;;;;;;;11.90;8.50;;;28.60;66.50;;;;;;4952872;28;20420;-56
2022/08/26 09:36:21;;;;;;;;;;;28.80;58.40;;;;;;4953997;28;20023;-58
2022/08/26 09:38:49;;;;;;;16.80;8.65;;;28.80;58.20;;;;;;4953574;28;19997;-56
2022/08/26 09:41:23;;;;;;;14.65;8.68;;;28.90;58.60;;;;;;4953414;28;20042;-56
2022/08/26 09:44:08;;;;;;;11.15;9.05;;;;;;;;;;4953404;28;20103;-57
2022/08/26 09:46:34;;;;;;;14.32;9.02;;;29.10;66.80;;;;;;4953510;28;20051;-56
2022/08/26 09:49:18;;;;;;;12.57;8.50;;;;;;;;;;4953556;28;20118;-57
2022/08/26 09:51:44;;;;;;;15.07;7.70;;;;;;;;;;4953144;28;20035;-57
2022/08/26 09:54:23;;;;;;;12.25;8.32;;;;;;;;;;4953244;28;20024;-57
2022/08/26 09:56:49;;;;;;;16.55;8.65;;;;;;;;;;4953386;28;20404;-57
2022/08/26 09:59:28;;;;;;;12.15;8.80;;;;;;;;;;4952138;28;20019;-58
2022/08/26 10:01:55;;;;;;;12.65;8.85;;;;;;;;;;4953478;28;20058;-56
2022/08/26 10:04:23;;;;;;;14.15;8.32;;;;;;;;;;4953290;28;20019;-56
2022/08/26 10:07:03;;;;;;;11.77;7.20;;;;;;;;;;4953187;28;20039;-55
2022/08/26 10:09:32;;;;;;;9.50;6.65;;;;;;;;;;4953301;28;20377;-59
2022/08/26 10:12:00;;;;;;;15.00;5.70;;;;;;;;;;4951866;28;20503;-57
2022/08/26 10:14:38;;;;;;;12.90;4.50;;;;;;;;;;4953120;28;20031;-54
2022/08/26 10:17:07;;;;;;;12.70;7.35;;;;;;;;;;4949992;28;20032;-59
2022/08/26 10:19:36;;;;;;;15.23;6.20;;;;;;;;;;4951479;29;20027;-56
2022/08/26 10:22:05;;;;;;;10.07;6.32;;;;;;;;;;4950381;28;20448;-55
2022/08/26 10:24:38;;;;;;;11.00;5.90;;;29.30;56.80;;;;;;4952951;28;20556;-55
2022/08/26 10:27:06;;;;;;;16.08;7.38;;;30.10;52.90;;;;;;4953062;28;20027;-56
2022/08/26 10:29:37;;;;;;;12.40;7.03;;;;;;;;;;4952975;28;20095;-57
2022/08/26 10:32:16;;;;;;;11.43;7.65;;;;;;;;;;4952938;28;20051;-56
2022/08/26 10:34:42;;;;;;;16.65;7.40;;;;;;;;;;4952960;28;20031;-52
2022/08/26 10:37:49;;;;;;;12.55;8.32;;;30.00;53.30;;;;;;4954573;29;20039;-58
2022/08/26 10:40:37;;;;;;;11.45;7.40;;;30.10;53.60;;;;;;4956205;28;20028;-57
2022/08/26 10:43:15;;;;;;;11.68;6.68;;;;;;;;;;4956223;28;20031;-57
2022/08/26 10:45:43;;;;;;;10.57;6.97;;;;;;;;;;4953902;28;20107;-57
2022/08/26 10:48:12;;;;;;;8.95;5.25;;;;;;;;;;4947462;29;20035;-58
2022/08/26 10:50:40;;;;;;;15.85;6.40;;;;;;;;;;4955365;28;20066;-56
2022/08/26 10:53:24;;;;;;;11.60;6.15;;;;;;;;;;4956231;28;20089;-57
2022/08/26 10:56:00;;;;;;;10.63;6.10;;;;;;;;;;4955965;28;20082;-56
2022/08/26 10:58:26;;;;;;;11.38;5.70;;;;;;;;;;4956086;28;20110;-58
2022/08/26 11:03:53;;;;;;;10.13;5.80;;;;;;;;;;4944037;29;20055;-57
2022/08/26 11:06:20;;;;;;;8.95;6.25;;;;;;;;;;4947998;29;20031;-57
2022/08/26 11:08:55;;;;;;;9.80;5.88;;;30.90;59.00;;;;;;4955948;28;20023;-54
2022/08/26 11:11:41;;;;;;;8.18;5.68;;;31.00;51.30;;;;;;4955026;28;20065;-57
2022/08/26 11:14:30;;;;;;;6.80;5.78;;;31.00;52.50;;;;;;4954697;28;20496;-56
2022/08/26 11:16:57;;;;;;;9.43;6.88;;;;;;;;;;4946153;29;20031;-56
2022/08/26 11:19:29;;;;;;;8.82;6.90;;;;;;;;;;4955741;28;20027;-57
2022/08/26 11:22:06;;;;;;;9.07;6.10;;;;;;;;;;4942408;28;20031;-56
2022/08/26 11:24:55;;;;;;;13.88;7.10;;;;;;;;;;4952355;28;20388;-57
2022/08/26 11:27:32;;;;;;;13.68;7.05;;;31.00;52.90;;;;;;4936253;29;20503;-58
2022/08/26 11:30:01;;;;;;;10.95;6.25;;;;;;;;;;4954232;29;20078;-57
2022/08/26 11:32:33;;;;;;;13.68;7.65;;;;;;;;;;4954649;28;20115;-59
2022/08/26 11:35:01;;;;;;;11.23;7.20;;;;;;;;;;4955136;28;20027;-58
2022/08/26 11:37:39;;;;;;;13.27;5.70;;;;;;;;;;4955402;28;20026;-58
2022/08/26 11:40:13;;;;;;;10.45;6.88;;;;;;;;;;4955180;28;20055;-57
2022/08/26 11:42:41;;;;;;;12.50;5.88;;;;;;;;;;4936952;29;20036;-58
2022/08/26 11:45:30;;;;;;;9.55;5.32;;;;;;;;;;4955127;28;20034;-56
2022/08/26 11:47:56;;;;;;;9.13;6.05;;;;;;;;;;4953801;28;20094;-57
2022/08/26 11:50:25;;;;;;;8.57;6.07;;;;;;;;;;4954548;28;20118;-55
2022/08/26 11:52:54;;;;;;;8.10;5.45;;;;;;;;;;4954973;28;20037;-57
2022/08/26 11:55:20;;;;;;;6.97;5.13;;;;;;;;;;4953544;28;20027;-55
2022/08/26 11:57:52;;;;;;;7.63;5.25;;;;;;;;;;4954958;28;20510;-57
2022/08/26 12:00:29;;;;;;;8.38;4.88;;;;;;;;;;4954327;28;20485;-57
2022/08/26 12:02:55;;;;;;;8.73;4.93;;;;;;;;;;4949686;29;20039;-57
2022/08/26 12:05:23;;;;;;;11.90;5.40;;;;;;;;;;4954796;28;20106;-56
2022/08/26 12:07:50;;;;;;;9.70;5.50;;;;;;;;;;4954673;28;20059;-57
2022/08/26 12:10:28;;;;;;;6.65;4.22;;;;;;;;;;4954673;28;20379;-58
2022/08/26 12:12:56;;;;;;;5.07;3.92;;;;;;;;;;4954316;28;20374;-56
2022/08/26 12:15:23;;;;;;;5.40;3.72;;;;;;;;;;4954821;28;20388;-58
2022/08/26 12:17:49;;;;;;;10.15;4.45;;;;;;;;;;4954323;28;20468;-57
2022/08/26 12:20:18;;;;;;;14.77;4.30;;;;;;;;;;4954311;28;20477;-57
2022/08/26 12:22:45;;;;;;;7.40;5.13;;;;;;;;;;4954264;28;20489;-57
2022/08/26 12:25:11;;;;;;;;;;;;;;;;;;4954861;28;20113;-57
2022/08/26 12:27:38;;;;;;;7.63;4.10;;;;;;;;;;4954103;28;19910;-58
2022/08/26 12:30:04;;;;;;;5.68;4.18;;;;;;;;;;4954155;28;20174;-58
2022/08/26 12:32:31;;;;;;;6.00;4.70;;;;;;;;;;4953941;28;20031;-56
2022/08/26 12:34:57;;;;;;;8.02;4.30;;;;;;;;;;4952912;28;20090;-57
2022/08/26 12:37:23;;;;;;;;;;;;;;;;;;4953263;28;20579;-58
2022/08/26 12:39:49;;;;;;;9.90;4.40;;;;;;;;;;4954022;28;19946;-56
2022/08/26 12:42:15;;;;;;;;;;;;;;;;;;4954460;28;20038;-56
2022/08/26 12:44:47;;;;;;;4.85;4.22;;;;;;;;;;4954096;28;19906;-55
2022/08/26 12:47:25;;;;;;;12.57;6.45;;;;;;;;;;4953762;28;20027;-54
2022/08/26 12:50:10;;;;;;;6.65;4.55;;;;;;;;;;4953881;28;20027;-56
2022/08/26 12:52:50;;;;;;;7.47;4.80;;;;;;;;;;4953648;28;20035;-58
2022/08/26 12:55:21;;;;;;;7.15;4.22;;;;;;;;;;4952731;28;20484;-58
2022/08/26 12:57:47;;;;;;;6.75;4.20;;;;;;;;;;4952334;28;20028;-58
2022/08/26 13:00:29;;;;;;;11.80;5.28;;;;;;;;;;4953700;28;20031;-57
2022/08/26 13:02:55;;;;;;;11.20;4.55;;;;;;;;;;4934701;29;20039;-56
2022/08/26 13:05:22;;;;;;;6.57;4.15;;;;;;;;;;4934710;29;20063;-57
2022/08/26 13:08:07;;;;;;;6.97;4.40;;;;;;;;;;4934727;29;20059;-58
2022/08/26 13:10:35;;;;;;;10.95;5.30;;;;;;;;;;4949158;28;20149;-59
2022/08/26 13:13:01;;;;;;;7.22;4.13;;;;;;;;;;4953899;28;20106;-58
2022/08/26 13:15:27;;;;;;;7.55;4.45;;;;;;;;;;4953437;28;20576;-58
2022/08/26 13:17:53;;;;;;;9.35;4.55;;;;;;;;;;4953464;28;20080;-59
2022/08/26 13:20:19;;;;;;;9.73;4.03;;;;;;;;;;4953513;28;20051;-58
2022/08/26 13:22:45;;;;;;;4.18;3.60;;;;;;;;;;4953609;28;20039;-59
2022/08/26 13:25:11;;;;;;;6.53;4.00;;;;;;;;;;4984219;23;20130;-62
2022/08/26 13:27:37;;;;;;;10.00;4.70;;;;;;;;;;4972702;28;20030;-62
2022/08/26 13:30:04;;;;;;;5.00;3.88;;;;;;;;;;4972761;28;20097;-62
2022/08/26 13:32:30;;;;;;;;;;;;;;;;;;4973100;28;20035;-62
2022/08/26 13:34:56;;;;;;;12.90;4.93;;;;;;;;;;4972799;28;20458;-62
2022/08/26 13:37:23;;;;;;;9.07;4.35;;;;;;;;;;4972698;28;20022;-61
2022/08/26 13:39:49;;;;;;;;;;;;;;;;;;4966486;28;20031;-62
2022/08/26 13:42:15;;;;;;;9.02;3.75;;;;;;;;;;4953546;28;19907;-62
2022/08/26 13:44:43;;;;;;;4.95;3.72;;;;;;;;;;4953494;28;20054;-62
2022/08/26 13:47:09;;;;;;;5.15;3.63;;;;;;;;;;4953427;28;20058;-61
2022/08/26 13:49:35;;;;;;;5.80;3.60;;;;;;;;;;4953292;28;20035;-64
2022/08/26 13:52:02;;;;;;;7.93;3.60;;;;;;;;;;4961483;28;20069;-66
2022/08/26 13:54:28;;;;;;;4.45;3.03;;;;;;;;;;4968036;28;20024;-66
2022/08/26 13:56:54;;;;;;;;;;;;;;;;;;4954169;28;20499;-66
2022/08/26 13:59:20;;;;;;;5.55;3.38;;;;;;;;;;4955147;28;19954;-67